Time;durP1;ratioP1;P1;durP2;ratioP2;P2;SDS_P1;SDS_P2;PMS_P1;PMS_P2;Temp;Humidity;BMP_temperature;BMP_pressure;BME280_temperature;BME280_humidity;BME280_pressure;Samples;Min_cycle;Max_cycle;Signal;HPM_P1;HPM_P2
2022/03/21 00:02:25;;;;;;;52.63;45.23;;;;;;;-0.07;nan;102915.00;5056200;28;20013;-58
2022/03/21 00:04:51;;;;;;;55.37;45.53;;;;;;;-0.05;nan;102916.09;5051145;28;20025;-57
2022/03/21 00:07:17;;;;;;;54.13;47.03;;;;;;;-0.06;nan;102913.38;5051494;28;20024;-59
2022/03/21 00:09:42;;;;;;;53.73;47.00;;;;;;;-0.09;nan;102911.38;5050679;28;20512;-58
2022/03/21 00:12:08;;;;;;;48.70;43.30;;;;;;;-0.11;nan;102917.06;5050391;28;20035;-58
2022/03/21 00:14:33;;;;;;;55.33;46.77;;;;;;;-0.14;nan;102922.72;5051074;28;20374;-57
2022/03/21 00:16:59;;;;;;;53.20;45.20;;;;;;;-0.17;nan;102922.41;5067545;28;20116;-57
2022/03/21 00:19:25;;;;;;;53.97;45.60;;;;;;;-0.20;nan;102927.16;5070940;28;20028;-57
2022/03/21 00:21:50;;;;;;;52.20;45.17;;;;;;;-0.23;nan;102922.63;5070648;28;20024;-57
2022/03/21 00:24:16;;;;;;;50.10;44.40;;;;;;;-0.29;nan;102917.75;5070697;28;20036;-58
2022/03/21 00:26:41;;;;;;;55.27;45.90;;;;;;;-0.34;nan;102929.09;5070521;28;20461;-58
2022/03/21 00:29:08;;;;;;;54.23;45.60;;;;;;;-0.39;nan;102920.03;5064123;28;20467;-56
2022/03/21 00:31:35;;;;;;;55.83;46.93;;;;;;;-0.40;nan;102933.53;5050395;28;20040;-58
2022/03/21 00:34:01;;;;;;;51.93;46.13;;;;;;;-0.42;nan;102932.44;5049511;28;20083;-59
2022/03/21 00:36:26;;;;;;;54.67;45.37;;;;;;;-0.46;nan;102936.28;5050110;28;20100;-58
2022/03/21 00:38:51;;;;;;;52.93;46.00;;;;;;;-0.50;nan;102932.50;5050211;28;20800;-58
2022/03/21 00:41:17;;;;;;;55.63;45.60;;;;;;;-0.53;nan;102937.25;5050565;28;20428;-58
2022/03/21 00:43:42;;;;;;;53.53;45.80;;;;;;;-0.59;nan;102931.47;5050112;28;20051;-58
2022/03/21 00:46:08;;;;;;;58.27;45.20;;;;;;;-0.63;nan;102939.53;5032206;28;20037;-54
2022/03/21 00:48:33;;;;;;;52.53;45.50;;;;;;;-0.66;nan;102940.09;5050598;28;20033;-56
2022/03/21 00:50:59;;;;;;;57.63;48.30;;;;;;;-0.70;nan;102939.59;5061786;28;20021;-57
2022/03/21 00:53:25;;;;;;;55.00;46.43;;;;;;;-0.77;nan;102941.41;5054409;28;20037;-58
2022/03/21 00:55:51;;;;;;;55.97;47.63;;;;;;;-0.79;nan;102935.25;5049928;28;20029;-56
2022/03/21 00:58:17;;;;;;;55.13;46.23;;;;;;;-0.81;nan;102938.38;5049720;28;20033;-57
2022/03/21 01:00:43;;;;;;;51.87;44.37;;;;;;;-0.77;nan;102940.50;5050009;28;20044;-57
2022/03/21 01:03:09;;;;;;;48.03;42.50;;;;;;;-0.75;nan;102947.59;5049655;28;20269;-59
2022/03/21 01:05:35;;;;;;;45.17;39.70;;;;;;;-0.74;nan;102951.94;5050462;28;20432;-59
2022/03/21 01:08:02;;;;;;;51.90;42.43;;;;;;;-0.80;nan;102952.91;5050524;28;20035;-57
2022/03/21 01:10:28;;;;;;;49.60;41.40;;;;;;;-0.84;nan;102954.19;5049948;28;20040;-56
2022/03/21 01:12:54;;;;;;;48.87;40.80;;;;;;;-0.89;nan;102960.41;5049483;28;20421;-57
2022/03/21 01:15:21;;;;;;;54.67;43.83;;;;;;;-0.98;nan;102953.56;5049820;28;20033;-58
2022/03/21 01:17:48;;;;;;;49.93;41.13;;;;;;;-0.97;nan;102951.91;5049949;28;20017;-57
2022/03/21 01:20:15;;;;;;;48.77;41.50;;;;;;;-1.01;nan;102955.72;5049935;28;20025;-57
2022/03/21 01:22:43;;;;;;;49.50;42.03;;;;;;;-1.01;nan;102960.81;5049357;28;20044;-58
2022/03/21 01:25:10;;;;;;;52.37;42.50;;;;;;;-1.05;nan;102962.88;5050032;28;20033;-59
2022/03/21 01:27:35;;;;;;;50.30;41.60;;;;;;;-1.05;nan;102962.88;5049730;28;20082;-58
2022/03/21 01:30:06;;;;;;;50.10;40.57;;;;;;;-1.06;nan;102961.94;5049922;28;20033;-58
2022/03/21 01:32:33;;;;;;;51.03;41.65;;;;;;;-1.10;nan;102954.72;5049461;28;20033;-56
2022/03/21 01:34:58;;;;;;;47.70;42.23;;;;;;;-1.14;nan;102955.09;5049384;28;20028;-58
2022/03/21 01:37:23;;;;;;;52.63;42.73;;;;;;;-1.18;nan;102956.38;5049450;28;20032;-59
2022/03/21 01:39:49;;;;;;;53.90;43.20;;;;;;;-1.24;nan;102961.66;5049869;28;20033;-59
2022/03/21 01:42:14;;;;;;;57.33;47.70;;;;;;;-1.27;nan;102961.31;5048891;28;20024;-56
2022/03/21 01:44:40;;;;;;;53.53;45.17;;;;;;;-1.30;nan;102957.53;5049037;28;20021;-59
2022/03/21 01:47:05;;;;;;;52.43;44.30;;;;;;;-1.30;nan;102963.53;5047837;28;20024;-58
2022/03/21 01:49:32;;;;;;;53.00;44.17;;;;;;;-1.29;nan;102957.69;5049217;28;20082;-59
2022/03/21 01:51:57;;;;;;;56.90;44.67;;;;;;;-1.29;nan;102959.31;5049577;28;20380;-57
2022/03/21 01:57:07;;;;;;;52.30;43.47;;;;;;;-1.32;nan;102954.81;5049027;28;20613;-58
2022/03/21 01:59:34;;;;;;;57.00;46.00;;;;;;;-1.30;nan;102954.97;5048052;28;20045;-58
2022/03/21 02:01:59;;;;;;;56.93;46.20;;;;;;;-1.32;nan;102962.44;5049063;28;20032;-58
2022/03/21 02:04:24;;;;;;;57.27;46.27;;;;;;;-1.39;nan;102957.38;5049113;28;20028;-59
2022/03/21 02:06:50;;;;;;;57.47;45.60;;;;;;;-1.39;nan;102950.66;5049644;28;20163;-59
2022/03/21 02:09:15;;;;;;;54.00;46.23;;;;;;;-1.36;nan;102956.09;5048722;28;20496;-58
2022/03/21 02:11:41;;;;;;;53.53;44.27;;;;;;;-1.37;nan;102953.38;5048601;28;20216;-59
2022/03/21 02:14:09;;;;;;;57.40;46.67;;;;;;;-1.39;nan;102949.75;5048813;28;20021;-57
2022/03/21 02:16:35;;;;;;;59.03;46.57;;;;;;;-1.35;nan;102957.00;5048545;28;20397;-59
2022/03/21 02:19:27;;;;;;;53.03;44.73;;;;;;;-1.33;nan;102960.59;5048747;28;20021;-57
2022/03/21 02:22:03;;;;;;;52.25;43.50;;;;;;;-1.31;nan;102964.25;5048496;28;20025;-57
2022/03/21 02:24:57;;;;;;;53.53;45.30;;;;;;;-1.30;nan;102970.25;5048474;28;20033;-58
2022/03/21 02:27:26;;;;;;;57.47;44.87;;;;;;;-1.32;nan;102959.91;5048633;28;20029;-58
2022/03/21 02:29:52;;;;;;;48.73;42.33;;;;;;;-1.36;nan;102960.25;5048229;28;20448;-54
2022/03/21 02:32:18;;;;;;;53.47;43.10;;;;;;;-1.40;nan;102963.22;5048025;28;20029;-57
2022/03/21 02:34:45;;;;;;;52.47;43.53;;;;;;;-1.45;nan;102968.66;5048475;28;20067;-57
2022/03/21 02:37:15;;;;;;;52.53;42.27;;;;;;;-1.45;nan;102965.19;5047964;28;20040;-59
2022/03/21 02:39:42;;;;;;;47.65;40.65;;;;;;;-1.46;nan;102971.91;5048617;28;20111;-57
2022/03/21 02:42:08;;;;;;;52.57;43.67;;;;;;;-1.45;nan;102970.28;5048811;28;20040;-60
2022/03/21 02:44:37;;;;;;;51.23;42.77;;;;;;;-1.50;nan;102967.22;5047967;28;20051;-58
2022/03/21 02:47:04;;;;;;;50.03;43.30;;;;;;;-1.56;nan;102969.06;5048209;28;20404;-59
2022/03/21 02:49:29;;;;;;;49.27;42.47;;;;;;;-1.59;nan;102967.06;5048284;28;20044;-58
2022/03/21 02:51:57;;;;;;;51.67;43.07;;;;;;;-1.60;nan;102966.91;5047579;28;20381;-58
2022/03/21 02:54:23;;;;;;;51.97;42.40;;;;;;;-1.64;nan;102957.09;5048007;28;20025;-59
2022/03/21 02:56:50;;;;;;;51.73;42.37;;;;;;;-1.65;nan;102957.81;5047423;28;20684;-58
2022/03/21 02:59:18;;;;;;;53.63;44.17;;;;;;;-1.63;nan;102958.91;5047151;28;20072;-58
2022/03/21 03:01:44;;;;;;;53.70;41.63;;;;;;;-1.63;nan;102953.81;5047578;28;20020;-56
2022/03/21 03:04:09;;;;;;;53.97;43.70;;;;;;;-1.69;nan;102957.47;5047953;28;20381;-57
2022/03/21 03:06:35;;;;;;;52.63;43.77;;;;;;;-1.70;nan;102965.81;5048435;28;20056;-59
2022/03/21 03:09:00;;;;;;;54.47;45.33;;;;;;;-1.75;nan;102959.31;5047080;28;20024;-58
2022/03/21 03:11:25;;;;;;;57.23;46.37;;;;;;;-1.74;nan;102961.09;5047203;28;20112;-58
2022/03/21 03:13:51;;;;;;;55.77;45.07;;;;;;;-1.74;nan;102966.19;5047324;28;20131;-59
2022/03/21 03:16:17;;;;;;;52.73;43.30;;;;;;;-1.72;nan;102958.72;5047841;28;20056;-56
2022/03/21 03:18:44;;;;;;;56.33;46.10;;;;;;;-1.72;nan;102959.66;5047486;28;20021;-58
2022/03/21 03:21:10;;;;;;;56.17;45.23;;;;;;;-1.71;nan;102961.44;5047132;28;20029;-58
2022/03/21 03:23:38;;;;;;;58.63;46.77;;;;;;;-148.33;100.00;56587.81;5047431;28;20477;-56
2022/03/21 03:26:04;;;;;;;55.53;45.43;;;;;;;-148.33;100.00;56587.81;5047412;28;20131;-59
2022/03/21 03:28:31;;;;;;;55.43;44.83;;;;;;;-148.33;100.00;56587.81;5047113;28;20028;-59
2022/03/21 03:30:58;;;;;;;53.73;46.20;;;;;;;-148.33;100.00;56587.81;5047768;28;20029;-58
2022/03/21 03:33:24;;;;;;;62.60;46.63;;;;;;;-148.33;100.00;56587.81;5047332;28;20457;-59
2022/03/21 03:35:50;;;;;;;60.73;48.20;;;;;;;-148.33;100.00;56587.81;5046899;28;20467;-57
2022/03/21 03:38:16;;;;;;;57.63;45.57;;;;;;;-148.33;100.00;56587.81;5047542;28;20028;-58
2022/03/21 03:40:43;;;;;;;53.17;43.47;;;;;;;-148.33;100.00;56587.81;5047779;28;20021;-59
2022/03/21 03:43:10;;;;;;;56.60;45.87;;;;;;;-148.33;100.00;56587.81;5047014;28;20025;-59
2022/03/21 03:45:35;;;;;;;54.13;44.80;;;;;;;-148.33;100.00;56587.81;5047581;28;20033;-59
2022/03/21 03:48:02;;;;;;;55.43;44.53;;;;;;;-148.33;100.00;56587.81;5046656;28;20029;-59
2022/03/21 03:50:27;;;;;;;58.40;46.83;;;;;;;-148.33;100.00;56587.81;5047253;28;20048;-59
2022/03/21 03:52:53;;;;;;;55.60;45.30;;;;;;;-148.33;100.00;56587.81;5047008;28;20024;-59
2022/03/21 03:55:18;;;;;;;56.00;46.60;;;;;;;-148.33;100.00;56587.81;5046926;28;20068;-57
2022/03/21 03:57:47;;;;;;;53.63;44.47;;;;;;;-148.33;100.00;56587.81;5046683;28;20344;-58
2022/03/21 04:00:14;;;;;;;60.33;48.03;;;;;;;-148.33;100.00;56587.81;5046617;28;20116;-57
2022/03/21 04:05:26;;;;;;;58.40;47.13;;;;;;;-148.33;100.00;56587.81;5047779;28;20126;-60
2022/03/21 04:07:51;;;;;;;60.50;47.57;;;;;;;-148.33;100.00;56587.81;5046797;28;20029;-59
2022/03/21 04:10:17;;;;;;;63.60;48.50;;;;;;;-148.33;100.00;56587.81;5048368;28;20025;-57
2022/03/21 04:12:43;;;;;;;57.50;46.57;;;;;;;-148.33;100.00;56587.81;5050296;28;20091;-60
2022/03/21 04:15:09;;;;;;;58.80;46.97;;;;;;;-148.33;100.00;56587.81;5050613;28;20021;-59
2022/03/21 04:17:35;;;;;;;61.07;47.60;;;;;;;-148.33;100.00;56587.81;5050042;28;20095;-58
2022/03/21 04:20:02;;;;;;;60.17;46.73;;;;;;;-148.33;100.00;56587.81;5050673;28;20473;-60
2022/03/21 04:22:28;;;;;;;62.33;48.23;;;;;;;-148.33;100.00;56587.81;5049918;28;20473;-59
2022/03/21 04:24:53;;;;;;;58.30;46.37;;;;;;;-148.33;100.00;56587.81;5050018;28;20082;-59
2022/03/21 04:27:18;;;;;;;56.73;47.40;;;;;;;-148.33;100.00;56587.81;5050069;28;20473;-59
2022/03/21 04:29:44;;;;;;;55.37;45.17;;;;;;;-148.33;100.00;56587.81;5049661;28;20223;-59
2022/03/21 04:32:09;;;;;;;57.20;46.43;;;;;;;-148.33;100.00;56587.81;5050522;28;20035;-59
2022/03/21 04:34:34;;;;;;;59.40;47.37;;;;;;;-148.33;100.00;56587.81;5050124;28;20107;-56
2022/03/21 04:37:00;;;;;;;61.07;47.50;;;;;;;-148.33;100.00;56587.81;5049353;28;20028;-58
2022/03/21 04:39:25;;;;;;;53.40;44.80;;;;;;;-148.33;100.00;56587.81;5050232;28;20039;-57
2022/03/21 04:41:51;;;;;;;60.43;49.20;;;;;;;-148.33;100.00;56587.81;5050422;28;20029;-57
2022/03/21 04:44:16;;;;;;;62.90;47.43;;;;;;;-148.33;100.00;56587.81;5050353;28;20056;-59
2022/03/21 04:46:41;;;;;;;62.63;47.67;;;;;;;-148.33;100.00;56587.81;5049937;28;20040;-57
2022/03/21 04:49:06;;;;;;;59.17;45.87;;;;;;;-148.33;100.00;56587.81;5049472;28;20485;-58
2022/03/21 04:51:32;;;;;;;62.13;46.87;;;;;;;-148.33;100.00;56587.81;5049498;28;20056;-57
2022/03/21 04:53:57;;;;;;;57.77;47.57;;;;;;;-148.33;100.00;56587.81;5050045;28;20037;-58
2022/03/21 04:56:22;;;;;;;65.13;47.87;;;;;;;-148.33;100.00;56587.81;5049639;28;20086;-57
2022/03/21 04:58:48;;;;;;;58.63;47.13;;;;;;;-148.33;100.00;56587.81;5049913;28;20049;-57
2022/03/21 05:01:14;;;;;;;63.00;48.17;;;;;;;-148.33;100.00;56587.81;5049067;28;20128;-58
2022/03/21 05:03:39;;;;;;;62.50;49.30;;;;;;;-148.33;100.00;56587.81;5049641;28;20108;-58
2022/03/21 05:06:05;;;;;;;62.13;48.97;;;;;;;-148.33;100.00;56587.81;5049539;28;20033;-58
2022/03/21 05:08:31;;;;;;;65.37;48.27;;;;;;;-148.33;100.00;56587.81;5049379;28;20060;-58
2022/03/21 05:10:56;;;;;;;63.70;48.57;;;;;;;-148.33;100.00;56587.81;5048937;28;20033;-56
2022/03/21 05:13:22;;;;;;;64.43;49.87;;;;;;;-148.33;100.00;56587.81;5049122;28;20049;-55
2022/03/21 05:15:47;;;;;;;65.63;49.93;;;;;;;-148.33;100.00;56587.81;5049643;28;20071;-56
2022/03/21 05:18:12;;;;;;;63.57;49.33;;;;;;;-148.33;100.00;56587.81;5049973;28;20025;-57
2022/03/21 05:20:38;;;;;;;65.97;50.27;;;;;;;-148.33;100.00;56587.81;5049367;28;20025;-58
2022/03/21 05:31:16;;;;;;;64.20;48.93;;;;;;;-148.33;100.00;56587.81;5048122;28;20362;-57
2022/03/21 05:36:28;;;;;;;60.33;48.00;;;;;;;-148.33;100.00;56587.81;5047430;28;20047;-56
2022/03/21 05:38:57;;;;;;;58.83;47.10;;;;;;;-148.33;100.00;56587.81;5046389;28;20242;-58
2022/03/21 05:41:23;;;;;;;58.43;45.83;;;;;;;-148.33;100.00;56587.81;5048260;28;20021;-58
2022/03/21 05:43:49;;;;;;;56.20;44.47;;;;;;;-148.33;100.00;56587.81;5048493;28;20462;-53
2022/03/21 05:46:15;;;;;;;59.77;46.53;;;;;;;-148.33;100.00;56587.81;5048988;28;20373;-60
2022/03/21 05:51:30;;;;;;;57.47;45.20;;;;;;;-148.33;100.00;56587.81;5048548;28;20036;-56
2022/03/21 05:53:58;;;;;;;57.85;45.10;;;;;;;-148.33;100.00;56587.81;5048974;28;20484;-60
2022/03/21 05:56:25;;;;;;;59.40;46.70;;;;;;;-148.33;100.00;56587.81;5048511;28;20074;-58
2022/03/21 05:58:52;;;;;;;59.93;47.43;;;;;;;-148.33;100.00;56587.81;5047915;28;20044;-58
2022/03/21 06:01:21;;;;;;;57.23;46.07;;;;;;;-148.33;100.00;56587.81;5048616;28;20351;-58
2022/03/21 06:03:48;;;;;;;59.77;47.53;;;;;;;-148.33;100.00;56587.81;5048728;28;20017;-56
2022/03/21 06:06:14;;;;;;;57.43;47.03;;;;;;;-148.33;100.00;56587.81;5047999;28;20040;-56
2022/03/21 06:08:39;;;;;;;61.33;48.43;;;;;;;-148.33;100.00;56587.81;5048229;28;20027;-58
2022/03/21 06:11:05;;;;;;;61.80;47.90;;;;;;;-148.33;100.00;56587.81;5064472;28;20480;-57
2022/03/21 06:13:36;;;;;;;54.23;44.03;;;;;;;-148.33;100.00;56587.81;5068540;28;20036;-57
2022/03/21 06:16:04;;;;;;;57.63;47.90;;;;;;;-148.33;100.00;56587.81;5049445;28;20424;-57
2022/03/21 06:18:31;;;;;;;59.03;46.90;;;;;;;-148.33;100.00;56587.81;5048305;28;20492;-56
2022/03/21 06:20:56;;;;;;;62.93;48.10;;;;;;;-148.33;100.00;56587.81;5056563;28;20020;-59
2022/03/21 06:23:21;;;;;;;58.33;46.70;;;;;;;-148.33;100.00;56587.81;5063707;28;20040;-55
2022/03/21 06:25:47;;;;;;;59.90;47.47;;;;;;;-148.33;100.00;56587.81;5056837;28;20484;-54
2022/03/21 06:28:12;;;;;;;58.83;46.73;;;;;;;-148.33;100.00;56587.81;5052150;28;20548;-56
2022/03/21 06:30:37;;;;;;;56.50;45.37;;;;;;;-148.33;100.00;56587.81;5047317;28;20061;-56
2022/03/21 06:33:03;;;;;;;58.10;45.90;;;;;;;-148.33;100.00;56587.81;5047189;28;20435;-56
2022/03/21 06:35:28;;;;;;;59.63;47.07;;;;;;;-148.33;100.00;56587.81;5047848;28;20021;-59
2022/03/21 06:37:53;;;;;;;60.70;47.10;;;;;;;-148.33;100.00;56587.81;5047207;28;20039;-56
2022/03/21 06:40:20;;;;;;;60.63;47.53;;;;;;;-148.33;100.00;56587.81;5047460;28;20069;-59
2022/03/21 06:42:45;;;;;;;55.17;45.13;;;;;;;-148.33;100.00;56587.81;5046996;28;20035;-58
2022/03/21 06:45:10;;;;;;;54.00;44.83;;;;;;;-148.33;100.00;56587.81;5055735;28;20021;-57
2022/03/21 06:47:35;;;;;;;56.17;45.03;;;;;;;-148.33;100.00;56587.81;5047665;28;20025;-58
2022/03/21 06:50:01;;;;;;;52.67;43.47;;;;;;;-148.33;100.00;56587.81;5027903;28;20033;-57
2022/03/21 06:52:26;;;;;;;54.20;45.57;;;;;;;-148.33;100.00;56587.81;5046191;28;20086;-58
2022/03/21 06:54:51;;;;;;;53.87;44.17;;;;;;;-148.33;100.00;56587.81;5046500;28;20036;-57
2022/03/21 06:57:17;;;;;;;57.60;46.13;;;;;;;-148.33;100.00;56587.81;5046944;28;20049;-58
2022/03/21 06:59:46;;;;;;;53.87;45.67;;;;;;;-148.33;100.00;56587.81;5049419;28;20055;-57
2022/03/21 07:02:12;;;;;;;51.43;44.07;;;;;;;-148.33;100.00;56587.81;5047141;28;20066;-58
2022/03/21 07:04:38;;;;;;;56.53;43.37;;;;;;;-148.33;100.00;56587.81;5062962;28;20063;-56
2022/03/21 07:07:03;;;;;;;47.37;42.07;;;;;;;-148.33;100.00;56587.81;5047461;28;20028;-58
2022/03/21 07:09:29;;;;;;;52.07;43.67;;;;;;;-148.33;100.00;56587.81;5046990;28;20396;-57
2022/03/21 07:11:54;;;;;;;51.53;42.30;;;;;;;-148.33;100.00;56587.81;5047228;28;20025;-58
2022/03/21 07:14:20;;;;;;;46.97;41.90;;;;;;;-148.33;100.00;56587.81;5046993;28;20024;-58
2022/03/21 07:16:46;;;;;;;48.37;43.10;;;;;;;-148.33;100.00;56587.81;5047611;28;20860;-59
2022/03/21 07:19:11;;;;;;;48.50;41.70;;;;;;;-148.33;100.00;56587.81;5046506;28;20037;-58
2022/03/21 07:21:36;;;;;;;49.03;41.53;;;;;;;-148.33;100.00;56587.81;5047515;28;20033;-58
2022/03/21 07:24:02;;;;;;;46.03;40.60;;;;;;;-148.33;100.00;56587.81;5047578;28;20017;-58
2022/03/21 07:26:27;;;;;;;47.43;41.20;;;;;;;-148.33;100.00;56587.81;5046621;28;20029;-56
2022/03/21 07:28:53;;;;;;;45.77;40.17;;;;;;;-148.33;100.00;56587.81;5047015;28;21063;-58
2022/03/21 07:31:18;;;;;;;46.90;41.23;;;;;;;-148.33;100.00;56587.81;5046066;28;20029;-57
2022/03/21 07:33:43;;;;;;;45.63;40.73;;;;;;;-148.33;100.00;56587.81;5046991;28;20025;-58
2022/03/21 07:36:10;;;;;;;45.53;40.53;;;;;;;-148.33;100.00;56587.81;5046767;28;20108;-58
2022/03/21 07:38:36;;;;;;;44.13;38.83;;;;;;;-148.33;100.00;56587.81;5063973;28;20017;-59
2022/03/21 07:41:04;;;;;;;47.63;40.00;;;;;;;-148.33;100.00;56587.81;5048263;28;20025;-57
2022/03/21 07:43:30;;;;;;;41.43;37.00;;;;;;;-148.33;100.00;56587.81;5046376;28;20036;-58
2022/03/21 07:48:39;;;;;;;40.67;35.97;;;;;;;-148.33;100.00;56587.81;5050914;28;20051;-57
2022/03/21 07:51:05;;;;;;;40.22;35.95;;;;;;;-148.33;100.00;56587.81;5050835;28;20024;-58
2022/03/21 07:53:31;;;;;;;41.55;36.30;;;;;;;-148.33;100.00;56587.81;5050140;28;20028;-58
2022/03/21 07:56:00;;;;;;;42.25;35.50;;;;;;;-148.33;100.00;56587.81;5049579;28;20043;-57
2022/03/21 07:58:26;;;;;;;37.13;32.42;;;;;;;-148.33;100.00;56587.81;5050540;28;20021;-59
2022/03/21 08:00:52;;;;;;;37.53;32.35;;;;;;;-148.33;100.00;56587.81;5053004;28;20382;-59
2022/03/21 08:03:17;;;;;;;41.42;32.92;;;;;;;-148.33;100.00;56587.81;5053128;28;20028;-57
2022/03/21 08:05:42;;;;;;;34.05;30.00;;;;;;;-148.33;100.00;56587.81;5049344;28;20103;-59
2022/03/21 08:08:08;;;;;;;32.60;29.10;;;;;;;-148.33;100.00;56587.81;5053101;28;20118;-58
2022/03/21 08:10:34;;;;;;;30.30;26.85;;;;;;;-148.33;100.00;56587.81;5052911;28;20112;-59
2022/03/21 08:12:59;;;;;;;30.40;27.08;;;;;;;-148.33;100.00;56587.81;5049876;28;20045;-59
2022/03/21 08:15:26;;;;;;;30.42;26.63;;;;;;;-148.33;100.00;56587.81;5050600;28;20024;-59
2022/03/21 08:17:56;;;;;;;28.98;25.88;;;;;;;-148.33;100.00;56587.81;5049933;28;20036;-59
2022/03/21 08:20:22;;;;;;;28.63;25.00;;;;;;;-148.33;100.00;56587.81;5051744;28;20029;-58
2022/03/21 08:22:48;;;;;;;25.60;22.92;;;;;;;-148.33;100.00;56587.81;5050103;28;20408;-59
2022/03/21 08:25:16;;;;;;;26.73;23.27;;;;;;;-148.33;100.00;56587.81;5053024;28;20383;-59
2022/03/21 08:27:43;;;;;;;23.80;21.30;;;;;;;-148.33;100.00;56587.81;5050296;28;20033;-57
2022/03/21 08:30:10;;;;;;;28.35;22.17;;;;;;;-148.33;100.00;56587.81;5049872;28;20033;-57
2022/03/21 08:32:36;;;;;;;25.73;21.05;;;;;;;-148.33;100.00;56587.81;5049785;28;20067;-59
2022/03/21 08:35:01;;;;;;;24.38;21.55;;;;;;;-148.33;100.00;56587.81;5049530;28;20075;-59
2022/03/21 08:37:26;;;;;;;25.25;21.90;;;;;;;-148.33;100.00;56587.81;5064158;28;20043;-59
2022/03/21 08:39:51;;;;;;;23.25;20.45;;;;;;;-148.33;100.00;56587.81;5049802;28;20029;-58
2022/03/21 08:42:17;;;;;;;23.55;21.05;;;;;;;-148.33;100.00;56587.81;5049678;28;20020;-59
2022/03/21 08:44:42;;;;;;;23.48;20.88;;;;;;;-148.33;100.00;56587.81;5055904;28;20024;-59
2022/03/21 08:47:08;;;;;;;24.45;20.63;;;;;;;-148.33;100.00;56587.81;5053540;28;20075;-59
2022/03/21 08:49:37;;;;;;;23.17;20.40;;;;;;;-148.33;100.00;56587.81;5065650;28;20059;-59
2022/03/21 08:52:03;;;;;;;21.42;18.95;;;;;;;-148.33;100.00;56587.81;5048690;28;20087;-59
2022/03/21 08:54:29;;;;;;;21.05;18.95;;;;;;;-148.33;100.00;56587.81;5051881;28;20036;-59
2022/03/21 08:56:54;;;;;;;22.90;20.42;;;;;;;-148.33;100.00;56587.81;5049852;28;20171;-59
2022/03/21 08:59:20;;;;;;;23.08;19.95;;;;;;;-148.33;100.00;56587.81;5032387;28;20056;-58
2022/03/21 09:01:45;;;;;;;21.55;19.35;;;;;;;-148.33;100.00;56587.81;5049365;28;20032;-59
2022/03/21 09:04:12;;;;;;;23.55;19.05;;;;;;;-148.33;100.00;56587.81;5049670;28;20029;-59
2022/03/21 09:06:38;;;;;;;26.42;18.92;;;;;;;-148.33;100.00;56587.81;5049906;28;20033;-60
2022/03/21 09:09:03;;;;;;;21.08;17.55;;;;;;;-148.33;100.00;56587.81;5050977;28;20037;-59
2022/03/21 09:11:29;;;;;;;22.42;17.35;;;;;;;-148.33;100.00;56587.81;5068918;28;20033;-59
2022/03/21 09:13:54;;;;;;;20.40;18.02;;;;;;;-148.33;100.00;56587.81;5068416;28;20032;-60
2022/03/21 09:16:19;;;;;;;24.05;18.05;;;;;;;-148.33;100.00;56587.81;5069290;28;20028;-59
2022/03/21 09:18:45;;;;;;;19.20;16.88;;;;;;;-148.33;100.00;56587.81;5069969;28;20744;-58
2022/03/21 09:21:11;;;;;;;19.67;16.10;;;;;;;-148.33;100.00;56587.81;5068440;28;20025;-60
2022/03/21 09:23:37;;;;;;;19.77;16.50;;;;;;;-148.33;100.00;56587.81;5067465;28;20287;-59
2022/03/21 09:26:04;;;;;;;21.23;16.45;;;;;;;-148.33;100.00;56587.81;5067241;28;20021;-59
2022/03/21 09:28:31;;;;;;;18.40;15.63;;;;;;;-148.33;100.00;56587.81;5066430;28;20033;-59
2022/03/21 09:30:56;;;;;;;21.80;15.95;;;;;;;-148.33;100.00;56587.81;5066899;28;20028;-59
2022/03/21 09:33:22;;;;;;;19.73;15.93;;;;;;;-148.33;100.00;56587.81;5068130;28;20058;-59
2022/03/21 09:35:47;;;;;;;19.92;15.68;;;;;;;-148.33;100.00;56587.81;5067573;28;20037;-59
2022/03/21 09:38:14;;;;;;;18.95;15.85;;;;;;;-148.33;100.00;56587.81;5066360;28;20036;-59
2022/03/21 09:40:41;;;;;;;19.73;15.23;;;;;;;-148.33;100.00;56587.81;5067566;28;20460;-60
2022/03/21 09:43:08;;;;;;;18.88;15.85;;;;;;;-148.33;100.00;56587.81;5067923;28;20374;-59
2022/03/21 09:45:35;;;;;;;22.58;16.77;;;;;;;-148.33;100.00;56587.81;5066905;28;20111;-59
2022/03/21 09:48:12;;;;;;;20.45;15.65;;;;;;;-148.33;100.00;56587.81;5066501;28;20366;-58
2022/03/21 09:50:42;;;;;;;18.10;15.63;;;;;;;-148.33;100.00;56587.81;5066528;28;20055;-59
2022/03/21 09:53:10;;;;;;;18.35;15.60;;;;;;;-148.33;100.00;56587.81;5067045;28;20077;-59
2022/03/21 09:55:35;;;;;;;19.02;15.05;;;;;;;-148.33;100.00;56587.81;5067103;28;20024;-60
2022/03/21 09:58:01;;;;;;;20.50;16.05;;;;;;;-148.33;100.00;56587.81;5067117;28;20039;-59
2022/03/21 10:00:27;;;;;;;18.58;15.98;;;;;;;-148.33;100.00;56587.81;5065916;28;20097;-60
2022/03/21 10:02:53;;;;;;;19.90;15.57;;;;;;;-148.33;100.00;56587.81;5067881;28;20028;-59
2022/03/21 10:05:35;;;;;;;19.27;15.73;;;;;;;-148.33;100.00;56587.81;5067694;28;20032;-60
2022/03/21 10:08:21;;;;;;;18.52;15.85;;;;;;;-148.33;100.00;56587.81;5047788;28;20049;-60
2022/03/21 10:10:54;;;;;;;21.98;15.48;;;;;;;-148.33;100.00;56587.81;5062904;28;20024;-58
2022/03/21 10:13:21;;;;;;;18.58;14.45;;;;;;;-148.33;100.00;56587.81;5067367;28;20028;-60
2022/03/21 10:15:47;;;;;;;19.35;14.88;;;;;;;-148.33;100.00;56587.81;5067651;28;20028;-59
2022/03/21 10:18:13;;;;;;;22.13;15.88;;;;;;;-148.33;100.00;56587.81;5067547;28;20028;-60
2022/03/21 10:20:39;;;;;;;21.25;15.88;;;;;;;-148.33;100.00;56587.81;5067650;28;20020;-60
2022/03/21 10:23:19;;;;;;;19.98;15.80;;;;;;;-148.33;100.00;56587.81;5066729;28;20020;-60
2022/03/21 10:25:45;;;;;;;20.40;15.73;;;;;;;-148.33;100.00;56587.81;5067390;28;20040;-60
2022/03/21 10:28:31;;;;;;;20.60;14.82;;;;;;;-148.33;100.00;56587.81;5067252;28;20020;-60
2022/03/21 10:30:57;;;;;;;21.25;15.57;;;;;;;-148.33;100.00;56587.81;5067342;28;20039;-60
2022/03/21 10:33:25;;;;;;;20.55;14.95;;;;;;;-148.33;100.00;56587.81;5067500;28;20029;-58
2022/03/21 10:35:50;;;;;;;17.25;15.45;;;;;;;-148.33;100.00;56587.81;5067203;28;20056;-60
2022/03/21 10:38:30;;;;;;;18.27;15.18;;;;;;;-148.33;100.00;56587.81;5066872;28;20056;-59
2022/03/21 10:40:55;;;;;;;18.70;15.68;;;;;;;-148.33;100.00;56587.81;5067557;28;20028;-58
2022/03/21 10:43:20;;;;;;;18.95;15.73;;;;;;;-148.33;100.00;56587.81;5067926;28;20024;-58
2022/03/21 10:45:47;;;;;;;22.83;15.90;;;;;;;-148.33;100.00;56587.81;5066505;28;20024;-60
2022/03/21 10:48:16;;;;;;;20.40;15.95;;;;;;;-148.33;100.00;56587.81;5067185;28;20024;-60
2022/03/21 10:50:56;;;;;;;21.10;15.80;;;;;;;-148.33;100.00;56587.81;5067049;28;20024;-60
2022/03/21 10:53:44;;;;;;;19.07;15.93;;;;;;;-148.33;100.00;56587.81;5067228;28;20031;-59
2022/03/21 10:56:11;;;;;;;22.05;16.48;;;;;;;-148.33;100.00;56587.81;5066792;28;20400;-60
2022/03/21 10:58:38;;;;;;;21.02;16.33;;;;;;;-148.33;100.00;56587.81;5066774;28;20464;-59
2022/03/21 11:01:15;;;;;;;19.00;15.98;;;;;;;-148.33;100.00;56587.81;5067443;28;20350;-60
2022/03/21 11:03:41;;;;;;;21.95;17.17;;;;;;;-148.33;100.00;56587.81;5066462;28;20039;-60
2022/03/21 11:06:11;;;;;;;22.83;16.77;;;;;;;-148.33;100.00;56587.81;5066959;28;20035;-59
2022/03/21 11:08:36;;;;;;;17.95;16.05;;;;;;;-148.33;100.00;56587.81;5066657;28;20032;-59
2022/03/21 11:11:04;;;;;;;18.85;15.85;;;;;;;-148.33;100.00;56587.81;5067126;28;20020;-60
2022/03/21 11:13:31;;;;;;;21.17;17.27;;;;;;;-148.33;100.00;56587.81;5066932;28;20107;-61
2022/03/21 11:15:57;;;;;;;20.80;17.05;;;;;;;-148.33;100.00;56587.81;5066383;28;20020;-60
2022/03/21 11:18:23;;;;;;;19.83;17.13;;;;;;;-148.33;100.00;56587.81;5067254;28;20020;-60
2022/03/21 11:20:49;;;;;;;24.42;17.00;;;;;;;-148.33;100.00;56587.81;5071395;28;20013;-60
2022/03/21 11:23:15;;;;;;;21.00;18.27;;;;;;;-148.33;100.00;56587.81;5070966;28;20369;-60